Aérodrome :
LOGIN :

S'inscrire | Disclaimer

   EN    FR    IT 

 










Légende :    VFR   VFR Marginal   IFR   IFR Intensif   IFR Très Intensif
Visi : 
Plafond : 
>= 8 km
>= 3000ft
5 à 8 km
1000 à 3000 ft
1500m à 5 km
500 à 1000 ft
800 à 1500m
200 à 500 ft
< 800m
< 200 ft
Symboles :   Orages  Brouillard  Fortes neiges  Fortes précipitations  Vent > 20 kt
SIGMETs :   Divers  Orages  Givrage  Turbulence  Onde Orograph.  Cendres Volcan.







- Altitude de l'aérodrome : 249 ft
- Code IATA : QZD


LHUD - Szeged Glider

DERNIER METAR :
  • 251415Z 08010KT 2500 TSRA BKN015CB 18/17 Q1017

METARs EXPIRÉS :
  • 251345Z 36011KT 5000 TSRA SCT023CB 24/17 Q1016
  • 251322Z 34008KT 9999 TSRA SCT025CB 25/18 Q1015
  • 251315Z 01004KT 9999 TS SCT030CB 26/17 Q1016
  • 251245Z 35006KT 9999 TS FEW030CB SCT200 25/16 Q1015
  • 251237Z 36007KT 9999 TS FEW030CB SCT200 25/16 Q1015
  • 251215Z 35005KT 9999 SCT033 SCT200 26/17 Q1016
  • 251145Z 36007KT 9999 SCT033 SCT200 26/18 Q1016
  • 251115Z 36006KT 9999 SCT026 SCT200 26/17 Q1016

TAF N/A
Pas de NOTAMs connus pour ce terrain.



MET'MAP, la Météo Aéronautique d'un coup d'oeil ! - Copyright ORBIFLY Décembre 2007 - Disclaimer

ORBIFLY MET'MAP TEAM :

Programmation & Développement : Alexandra Zaïnal
Conception & Développement : Baudouin d'Aumeries
Co-Programmation & Développement : Marc-Olivier Méhu
Soutien technique & logistique : Manuel Goepfert

Contact : metmap@orbifly.com




SOURCES & CREDITS :

   NOAA